Time;durP1;ratioP1;P1;durP2;ratioP2;P2;SDS_P1;SDS_P2;PMS_P1;PMS_P2;Temp;Humidity;BMP_temperature;BMP_pressure;BME280_temperature;BME280_humidity;BME280_pressure;Samples;Min_cycle;Max_cycle;Signal;HPM_P1;HPM_P2
2021/08/09 00:02:06;;;;;;;47.50;43.90;;;;;;;15.31;100.00;101117.26;1972088;73;33036;-75
2021/08/09 00:07:30;;;;;;;50.73;46.47;;;;;;;15.27;100.00;101112.02;1972067;73;32970;-75
2021/08/09 00:12:56;;;;;;;50.47;46.13;;;;;;;15.14;100.00;101107.24;1972072;73;32910;-75
2021/08/09 00:18:23;;;;;;;47.10;43.50;;;;;;;15.01;100.00;101108.89;1972081;73;33453;-75
2021/08/09 00:23:49;;;;;;;48.73;45.03;;;;;;;15.13;100.00;101110.34;1972058;73;32998;-75
2021/08/09 00:29:14;;;;;;;47.53;44.17;;;;;;;14.98;100.00;101101.09;1972053;73;32954;-75
2021/08/09 00:34:38;;;;;;;48.57;44.83;;;;;;;15.03;100.00;101109.96;1972102;73;32995;-75
2021/08/09 00:40:04;;;;;;;46.83;43.17;;;;;;;14.93;100.00;101110.17;1970725;71;33390;-74
2021/08/09 00:45:28;;;;;;;47.23;43.53;;;;;;;14.92;100.00;101100.95;1972090;73;33063;-74
2021/08/09 00:50:53;;;;;;;47.47;43.63;;;;;;;14.95;100.00;101096.69;1972198;73;33061;-74
2021/08/09 00:56:19;;;;;;;45.30;41.53;;;;;;;14.87;100.00;101082.85;1972375;73;32926;-74
2021/08/09 01:01:44;;;;;;;47.67;43.93;;;;;;;14.69;100.00;101084.30;1972069;73;32911;-75
2021/08/09 01:07:09;;;;;;;47.07;43.57;;;;;;;14.78;100.00;101076.30;1972050;72;32973;-73
2021/08/09 01:12:40;;;;;;;45.40;42.00;;;;;;;14.67;100.00;101073.45;1971713;73;33567;-74
2021/08/09 01:18:29;;;;;;;45.67;42.27;;;;;;;14.53;100.00;101079.56;1948011;74;32982;-74
2021/08/09 01:24:19;;;;;;;44.10;40.67;;;;;;;14.45;100.00;101078.30;2016562;71;33396;-74
2021/08/09 01:26:53;;;;;;;45.83;42.10;;;;;;;14.53;100.00;101079.56;1974092;73;26689;-74
2021/08/09 01:32:20;;;;;;;46.97;43.07;;;;;;;14.41;100.00;101082.01;1972287;73;32918;-74
2021/08/09 01:37:49;;;;;;;44.30;41.07;;;;;;;14.37;100.00;101078.17;1972286;73;32914;-74
2021/08/09 01:43:36;;;;;;;42.57;39.33;;;;;;;14.14;100.00;101084.09;1996177;71;35052;-75
2021/08/09 01:49:21;;;;;;;44.33;40.50;;;;;;;14.23;100.00;101083.67;2016472;71;32819;-74
2021/08/09 01:54:47;;;;;;;43.47;40.20;;;;;;;14.39;100.00;101083.70;1972050;73;32965;-74
2021/08/09 02:00:16;;;;;;;43.50;40.23;;;;;;;14.48;100.00;101068.47;1972047;73;32981;-75
2021/08/09 02:05:41;;;;;;;43.33;39.93;;;;;;;14.37;100.00;101071.18;1972278;73;33520;-75
2021/08/09 02:11:11;;;;;;;43.03;39.70;;;;;;;14.48;100.00;101063.70;1972037;73;32915;-75
2021/08/09 02:13:46;;;;;;;41.30;38.17;;;;;;;14.60;100.00;101071.59;1934858;74;26615;-75
2021/08/09 02:16:20;;;;;;;43.23;39.83;;;;;;;14.64;100.00;101067.61;1934846;74;26286;-75
2021/08/09 02:18:53;;;;;;;41.80;38.30;;;;;;;14.76;100.00;101065.19;1934863;74;26204;-75
2021/08/09 02:21:26;;;;;;;42.00;38.80;;;;;;;14.75;100.00;101069.94;1934979;74;26391;-74
2021/08/09 02:26:55;;;;;;;42.23;39.03;;;;;;;14.75;100.00;101060.16;1972057;73;33068;-74
2021/08/09 02:32:30;;;;;;;43.83;40.20;;;;;;;14.90;100.00;101061.25;1972092;73;32901;-75
2021/08/09 02:37:58;;;;;;;42.93;39.63;;;;;;;14.95;100.00;101054.16;1972074;73;33428;-74
2021/08/09 02:43:24;;;;;;;42.73;39.60;;;;;;;15.05;100.00;101047.55;1972071;73;32895;-75
2021/08/09 02:48:50;;;;;;;44.13;40.43;;;;;;;15.06;100.00;101039.39;1972073;73;33130;-74
2021/08/09 02:54:19;;;;;;;46.03;42.20;;;;;;;15.04;100.00;101040.28;1972298;73;32991;-74
2021/08/09 02:59:44;;;;;;;41.70;38.10;;;;;;;15.07;100.00;101034.06;1972176;73;33381;-75
2021/08/09 03:05:13;;;;;;;41.83;38.77;;;;;;;15.04;100.00;101031.33;1972290;73;33449;-74
2021/08/09 03:10:39;;;;;;;41.57;38.27;;;;;;;15.14;100.00;101026.67;1972040;73;32907;-74
2021/08/09 03:16:05;;;;;;;39.40;36.30;;;;;;;15.10;100.00;101024.23;1972053;73;33381;-74
2021/08/09 03:21:30;;;;;;;40.83;37.53;;;;;;;15.13;100.00;101023.03;1972132;73;33009;-74
2021/08/09 03:27:00;;;;;;;41.00;37.33;;;;;;;14.99;100.00;101021.63;1972345;73;33464;-75
2021/08/09 03:32:25;;;;;;;39.10;36.10;;;;;;;15.16;100.00;101021.57;1972087;73;33488;-74
2021/08/09 03:37:52;;;;;;;40.17;36.83;;;;;;;15.18;100.00;101023.50;1972283;73;32862;-75
2021/08/09 03:43:17;;;;;;;38.80;36.10;;;;;;;15.15;100.00;101029.70;1972314;73;33452;-74
2021/08/09 03:48:42;;;;;;;38.80;35.93;;;;;;;15.23;100.00;101023.41;1972243;73;32869;-74
2021/08/09 03:54:07;;;;;;;38.87;36.10;;;;;;;15.30;100.00;101023.80;1972321;73;33504;-74
2021/08/09 03:59:32;;;;;;;39.57;36.50;;;;;;;15.23;100.00;101034.00;1972085;73;32934;-74
2021/08/09 04:04:58;;;;;;;41.03;37.70;;;;;;;15.21;100.00;101037.69;1972376;73;33383;-74
2021/08/09 04:10:22;;;;;;;40.33;37.20;;;;;;;15.16;100.00;101032.20;1972358;73;33456;-73
2021/08/09 04:15:47;;;;;;;40.33;37.20;;;;;;;15.18;100.00;101035.53;1971725;73;32934;-73
2021/08/09 04:21:11;;;;;;;40.03;37.10;;;;;;;15.15;100.00;101050.12;1972086;73;33058;-74
2021/08/09 04:26:36;;;;;;;40.97;38.03;;;;;;;15.23;100.00;101046.59;1972115;73;32886;-74
2021/08/09 04:32:00;;;;;;;40.63;37.90;;;;;;;15.14;100.00;101042.89;1972124;73;32894;-74
2021/08/09 04:37:25;;;;;;;38.37;35.47;;;;;;;15.10;100.00;101054.44;1972115;73;32971;-75
2021/08/09 04:42:49;;;;;;;39.43;36.63;;;;;;;15.16;100.00;101048.98;1972322;73;32895;-75
2021/08/09 04:48:14;;;;;;;38.73;35.93;;;;;;;15.14;100.00;101044.29;1972135;73;32960;-74
2021/08/09 04:53:38;;;;;;;38.93;36.10;;;;;;;15.05;100.00;101047.55;1972187;73;33006;-75
2021/08/09 04:59:03;;;;;;;39.27;36.43;;;;;;;15.04;100.00;101043.08;1972385;73;33375;-74
2021/08/09 05:04:27;;;;;;;39.73;37.03;;;;;;;15.06;100.00;101044.98;1972260;73;33027;-74
2021/08/09 05:09:52;;;;;;;41.63;38.67;;;;;;;15.17;100.00;101046.45;1972465;73;32964;-73
2021/08/09 05:15:16;;;;;;;39.47;36.57;;;;;;;15.16;100.00;101048.16;1972419;73;33546;-74
2021/08/09 05:20:41;;;;;;;39.80;37.10;;;;;;;15.10;100.00;101046.05;1972186;73;32970;-74
2021/08/09 05:26:05;;;;;;;38.77;36.07;;;;;;;15.13;100.00;101053.81;1972468;73;33419;-74
2021/08/09 05:31:31;;;;;;;41.30;38.60;;;;;;;15.19;100.00;101059.55;1972199;73;32933;-74
2021/08/09 05:37:04;;;;;;;41.00;38.50;;;;;;;15.21;100.00;101055.05;1972227;73;33008;-75
2021/08/09 05:42:32;;;;;;;39.83;37.43;;;;;;;15.28;100.00;101057.69;1972464;73;32947;-77
2021/08/09 05:47:57;;;;;;;39.50;36.90;;;;;;;15.26;100.00;101059.98;1972158;73;32937;-74
2021/08/09 05:53:21;;;;;;;39.10;36.60;;;;;;;15.31;100.00;101061.84;1972310;73;32882;-74
2021/08/09 05:58:46;;;;;;;37.37;34.97;;;;;;;15.41;100.00;101068.61;1972197;73;32977;-75
2021/08/09 06:04:11;;;;;;;40.93;38.43;;;;;;;15.41;100.00;101073.64;1972168;73;32987;-74
2021/08/09 06:09:37;;;;;;;41.57;39.27;;;;;;;15.44;100.00;101081.44;1972209;73;32989;-75
2021/08/09 06:15:02;;;;;;;42.00;39.57;;;;;;;15.46;100.00;101082.50;1972421;73;32909;-75
2021/08/09 06:20:27;;;;;;;46.23;43.73;;;;;;;15.40;100.00;101085.17;1971550;71;33384;-71
2021/08/09 06:25:54;;;;;;;44.43;42.03;;;;;;;15.41;100.00;101084.00;1972200;73;32893;-75
2021/08/09 06:31:18;;;;;;;45.93;43.43;;;;;;;15.48;100.00;101090.03;1972395;72;32940;-75
2021/08/09 06:36:43;;;;;;;42.23;39.97;;;;;;;15.48;100.00;101082.47;1972256;73;33009;-75
2021/08/09 06:42:08;;;;;;;43.13;40.80;;;;;;;15.44;100.00;101087.03;1944028;73;33485;-76
2021/08/09 06:47:34;;;;;;;42.00;39.80;;;;;;;15.46;100.00;101090.34;1972164;73;32972;-76
2021/08/09 06:53:05;;;;;;;45.83;43.33;;;;;;;15.53;100.00;101096.97;1971715;73;33496;-73
2021/08/09 06:58:31;;;;;;;40.60;38.50;;;;;;;15.49;100.00;101106.50;1971568;73;32928;-73
2021/08/09 07:03:56;;;;;;;42.07;39.67;;;;;;;15.62;100.00;101112.43;1971840;73;32983;-74
2021/08/09 07:09:21;;;;;;;42.13;39.63;;;;;;;15.66;100.00;101120.50;1972252;73;32903;-76
2021/08/09 07:17:39;;;;;;;42.23;39.87;;;;;;;15.74;100.00;101126.76;2061579;69;32786;-74
2021/08/09 07:20:15;;;;;;;40.10;37.70;;;;;;;15.67;100.00;101132.77;2030797;71;26227;-74
2021/08/09 07:22:47;;;;;;;40.50;38.20;;;;;;;15.74;100.00;101135.16;2031086;71;26673;-74
2021/08/09 07:25:18;;;;;;;41.30;39.00;;;;;;;15.85;100.00;101136.02;2031005;70;26264;-74
2021/08/09 07:27:49;;;;;;;39.13;36.83;;;;;;;15.77;100.00;101140.12;2030984;70;26162;-74
2021/08/09 07:30:19;;;;;;;43.57;41.17;;;;;;;15.79;100.00;101135.03;2030917;71;26141;-74
2021/08/09 07:32:49;;;;;;;38.13;35.63;;;;;;;15.79;100.00;101131.66;2030966;70;26672;-73
2021/08/09 07:35:19;;;;;;;38.93;36.33;;;;;;;15.83;100.00;101133.28;2030936;70;26249;-74
2021/08/09 07:37:51;;;;;;;36.73;34.33;;;;;;;15.82;100.00;101138.05;2030921;71;26241;-74
2021/08/09 07:40:21;;;;;;;39.50;36.90;;;;;;;15.86;100.00;101135.45;2021700;71;26273;-74
2021/08/09 07:42:52;;;;;;;41.13;38.53;;;;;;;15.90;100.00;101133.11;1993858;72;26195;-74
2021/08/09 07:45:22;;;;;;;36.50;34.10;;;;;;;15.88;100.00;101133.15;1993855;72;24216;-74
2021/08/09 07:47:52;;;;;;;37.30;34.90;;;;;;;15.91;100.00;101127.77;1993786;72;26639;-73
2021/08/09 07:53:17;;;;;;;37.57;35.23;;;;;;;16.00;100.00;101125.06;1972341;73;33487;-75
2021/08/09 07:58:42;;;;;;;42.63;40.00;;;;;;;16.15;100.00;101129.47;1972341;73;32999;-75
2021/08/09 08:04:06;;;;;;;37.17;34.77;;;;;;;16.32;100.00;101131.02;1972337;73;33437;-75
2021/08/09 08:09:31;;;;;;;38.93;36.03;;;;;;;16.47;100.00;101129.84;1972098;73;32970;-74
2021/08/09 08:14:56;;;;;;;38.33;35.73;;;;;;;16.45;100.00;101131.55;1972346;73;33480;-75
2021/08/09 08:20:21;;;;;;;38.27;35.37;;;;;;;16.53;100.00;101135.55;1972300;73;33506;-75
2021/08/09 08:25:46;;;;;;;37.77;34.83;;;;;;;16.69;100.00;101128.44;1971883;73;31031;-72
2021/08/09 08:31:11;;;;;;;37.17;34.37;;;;;;;16.81;100.00;101128.11;1972174;73;31039;-76
2021/08/09 08:36:35;;;;;;;40.57;37.43;;;;;;;16.95;100.00;101128.03;1972315;73;32915;-76
2021/08/09 08:42:00;;;;;;;40.83;37.60;;;;;;;17.12;100.00;101139.36;1945387;73;30997;-75
2021/08/09 08:47:25;;;;;;;43.13;39.30;;;;;;;17.38;100.00;101143.70;1972077;73;32924;-76
2021/08/09 08:52:53;;;;;;;42.63;39.23;;;;;;;17.42;100.00;101162.13;1971670;73;31155;-75
2021/08/09 08:58:18;;;;;;;50.47;43.20;;;;;;;17.90;100.00;101156.55;1971841;73;31524;-78
2021/08/09 09:03:44;;;;;;;45.10;41.57;;;;;;;17.93;100.00;101159.53;1971811;73;31555;-72
2021/08/09 09:09:18;;;;;;;44.90;41.33;;;;;;;18.20;100.00;101164.88;1971840;73;31463;-71
2021/08/09 09:14:42;;;;;;;43.83;40.37;;;;;;;17.96;100.00;101158.06;1971708;73;31172;-73
2021/08/09 09:23:25;;;;;;;43.23;40.03;;;;;;;17.97;100.00;101167.55;2061546;69;33130;-76
2021/08/09 09:25:55;;;;;;;45.17;41.73;;;;;;;18.00;100.00;101171.14;1950815;73;24116;-75
2021/08/09 09:28:33;;;;;;;42.90;39.23;;;;;;;18.10;100.00;101183.46;2030839;71;24093;-77
2021/08/09 09:31:04;;;;;;;49.70;45.97;;;;;;;18.06;100.00;101178.24;2030932;71;24109;-75
2021/08/09 09:33:34;;;;;;;44.87;41.37;;;;;;;18.35;100.00;101177.66;2030881;71;24150;-76
2021/08/09 09:36:06;;;;;;;48.70;45.30;;;;;;;18.26;100.00;101179.63;2030809;70;24532;-77
2021/08/09 09:38:43;;;;;;;44.60;41.20;;;;;;;18.52;100.00;101171.20;2030829;71;24166;-76
2021/08/09 09:41:14;;;;;;;47.50;43.93;;;;;;;18.74;100.00;101180.88;2008431;70;24577;-76
2021/08/09 09:43:45;;;;;;;44.47;41.27;;;;;;;18.88;100.00;101178.73;1993931;72;24205;-74
2021/08/09 09:46:23;;;;;;;46.20;42.83;;;;;;;18.91;100.00;101182.88;1993919;72;24145;-75
2021/08/09 09:49:01;;;;;;;39.23;36.47;;;;;;;18.68;100.00;101173.79;1993877;72;24573;-75
2021/08/09 09:51:28;;;;;;;39.87;36.97;;;;;;;18.88;100.00;101178.73;1993580;72;24143;-75
2021/08/09 09:56:56;;;;;;;39.10;36.30;;;;;;;18.63;100.00;101165.51;1971740;73;30967;-73
2021/08/09 10:02:21;;;;;;;40.40;37.50;;;;;;;18.93;100.00;101157.45;1972141;73;31035;-74
2021/08/09 10:07:50;;;;;;;38.53;35.87;;;;;;;19.24;100.00;101153.56;1972138;73;30992;-75
2021/08/09 10:13:19;;;;;;;39.67;36.73;;;;;;;19.17;100.00;101139.19;1971824;73;31047;-75
2021/08/09 10:18:54;;;;;;;39.07;36.57;;;;;;;19.34;100.00;101132.09;1972186;73;30938;-74
2021/08/09 10:24:39;;;;;;;39.20;36.70;;;;;;;19.57;100.00;101138.30;1972208;73;31029;-76
2021/08/09 10:30:17;;;;;;;38.87;36.47;;;;;;;19.63;100.00;101138.36;1972137;73;30930;-76
2021/08/09 10:36:08;;;;;;;39.13;36.83;;;;;;;19.81;100.00;101146.37;1971682;73;30946;-73
2021/08/09 10:41:39;;;;;;;38.73;36.37;;;;;;;19.86;100.00;101135.48;1950619;73;31112;-76
2021/08/09 10:48:00;;;;;;;36.73;34.57;;;;;;;19.73;100.00;101137.95;1972364;73;31408;-75
2021/08/09 10:53:47;;;;;;;33.87;31.97;;;;;;;19.94;100.00;101138.25;1972411;73;30925;-76
2021/08/09 10:59:44;;;;;;;36.03;34.03;;;;;;;20.31;100.00;101132.89;1971622;73;30991;-73
2021/08/09 11:05:31;;;;;;;35.50;33.50;;;;;;;20.92;100.00;101120.47;1971718;73;31027;-73
2021/08/09 11:11:22;;;;;;;36.80;34.90;;;;;;;20.58;100.00;101121.02;1972350;73;33405;-76
2021/08/09 11:17:28;;;;;;;35.53;33.63;;;;;;;20.70;100.00;101115.45;2016505;71;30853;-74
2021/08/09 11:23:09;;;;;;;31.93;30.23;;;;;;;20.92;100.00;101117.06;1972371;73;30920;-76
2021/08/09 11:28:35;;;;;;;29.40;27.80;;;;;;;20.91;100.00;101116.81;1972147;73;31058;-76
2021/08/09 11:34:07;;;;;;;33.70;32.00;;;;;;;20.71;100.00;101117.08;1972129;73;30937;-76
2021/08/09 11:39:41;;;;;;;32.23;30.63;;;;;;;20.77;100.00;101117.70;1971694;73;31004;-73
2021/08/09 11:45:27;;;;;;;29.73;28.23;;;;;;;21.17;100.00;101120.80;1971797;73;31060;-74
2021/08/09 11:50:56;;;;;;;30.17;28.67;;;;;;;21.13;100.00;101125.49;1972139;73;31002;-76
2021/08/09 11:56:24;;;;;;;28.23;26.93;;;;;;;21.09;100.00;101118.86;1972277;73;31018;-76
2021/08/09 12:01:49;;;;;;;25.57;24.27;;;;;;;21.19;100.00;101121.25;1971665;73;31038;-73
2021/08/09 12:07:22;;;;;;;24.97;23.77;;;;;;;21.13;100.00;101109.38;1971635;73;31029;-75
2021/08/09 12:12:47;;;;;;;23.40;22.20;;;;;;;21.20;100.00;101113.02;1971868;73;32985;-74
2021/08/09 12:18:13;;;;;;;23.20;22.10;;;;;;;21.37;100.00;101113.39;1972407;73;31531;-76
2021/08/09 12:23:55;;;;;;;22.70;21.60;;;;;;;21.29;100.00;101120.22;1972186;73;30988;-76
2021/08/09 12:26:25;;;;;;;31.63;30.13;;;;;;;;;;1934918;74;24700;-77
2021/08/09 12:31:52;;;;;;;23.95;22.75;;;;;;;21.50;100.00;101115.05;1972179;73;31107;-77
2021/08/09 12:37:18;;;;;;;20.92;20.02;;;;;;;21.91;100.00;101123.28;1972166;72;30979;-75
2021/08/09 12:42:44;;;;;;;23.85;22.65;;;;;;;21.67;100.00;101134.03;1972381;73;31446;-76
2021/08/09 12:48:10;;;;;;;24.15;23.02;;;;;;;21.17;100.00;101127.27;1971844;73;31629;-74
2021/08/09 12:53:36;;;;;;;22.10;20.90;;;;;;;21.13;100.00;101119.84;1971795;73;31142;-73
2021/08/09 12:59:03;;;;;;;21.50;20.50;;;;;;;21.57;100.00;101128.83;1971881;73;31080;-73
2021/08/09 13:16:21;;;;;;;31.97;30.12;;;;;;;20.77;100.00;101149.59;1971824;73;31028;-73
2021/08/09 13:21:45;;;;;;;33.83;31.93;;;;;;;20.64;100.00;101148.46;1971583;73;30981;-73
2021/08/09 13:27:16;;;;;;;29.30;27.67;;;;;;;20.86;100.00;101152.32;1971681;73;31037;-74
2021/08/09 13:32:40;;;;;;;27.40;25.90;;;;;;;20.95;100.00;101155.89;1971713;73;30952;-73
2021/08/09 13:38:12;;;;;;;28.32;26.75;;;;;;;21.02;100.00;101163.20;1972460;73;31520;-76
2021/08/09 13:43:39;;;;;;;26.63;25.07;;;;;;;20.99;100.00;101167.31;1972396;73;31048;-76
2021/08/09 13:49:05;;;;;;;29.63;27.97;;;;;;;21.14;100.00;101155.37;1972386;73;31449;-75
2021/08/09 13:54:30;;;;;;;29.87;28.20;;;;;;;21.02;100.00;101165.20;1972384;73;31498;-76
2021/08/09 13:59:55;;;;;;;27.70;26.10;;;;;;;20.87;100.00;101161.05;1972356;73;30940;-76
2021/08/09 14:05:19;;;;;;;26.13;24.70;;;;;;;21.04;100.00;101157.21;1972389;73;31002;-75
2021/08/09 14:10:43;;;;;;;26.77;25.27;;;;;;;20.87;100.00;101164.70;1972179;72;31009;-74
2021/08/09 14:16:08;;;;;;;26.80;25.20;;;;;;;20.58;100.00;101178.09;1972153;73;30996;-74
2021/08/09 14:21:33;;;;;;;30.70;28.80;;;;;;;20.48;100.00;101190.61;1972363;73;31453;-76
2021/08/09 14:26:57;;;;;;;29.87;28.00;;;;;;;20.53;100.00;101190.41;1972408;73;31545;-73
2021/08/09 14:32:22;;;;;;;31.57;29.57;;;;;;;20.97;100.00;101188.83;1972412;73;31496;-76
2021/08/09 14:37:47;;;;;;;30.90;29.10;;;;;;;20.70;100.00;101178.97;1972172;72;30908;-74
2021/08/09 14:46:21;;;;;;;26.30;24.87;;;;;;;20.98;100.00;101170.72;2061465;69;31028;-76
2021/08/09 14:48:51;;;;;;;25.80;24.20;;;;;;;20.92;100.00;101183.42;1950811;73;24112;-76
2021/08/09 14:51:21;;;;;;;26.60;25.07;;;;;;;20.75;100.00;101185.79;2030803;71;24108;-77
2021/08/09 14:53:51;;;;;;;25.90;24.40;;;;;;;20.86;100.00;101180.56;2030835;71;24109;-76
2021/08/09 14:56:21;;;;;;;25.30;23.87;;;;;;;20.80;100.00;101191.23;2030865;70;24174;-76
2021/08/09 14:58:51;;;;;;;25.77;24.27;;;;;;;20.67;100.00;101198.57;2030848;70;24107;-76
2021/08/09 15:01:21;;;;;;;26.20;24.60;;;;;;;20.59;100.00;101197.48;2030956;70;24183;-77
2021/08/09 15:03:51;;;;;;;26.03;24.57;;;;;;;20.49;100.00;101212.02;2030823;71;24162;-76
2021/08/09 15:06:22;;;;;;;30.03;28.47;;;;;;;20.46;100.00;101215.50;2030988;71;24096;-76
2021/08/09 15:08:52;;;;;;;32.40;30.70;;;;;;;20.27;100.00;101219.36;2030846;71;24096;-76
2021/08/09 15:11:22;;;;;;;29.83;28.33;;;;;;;19.63;100.00;101230.79;2030899;71;24113;-76
2021/08/09 15:13:52;;;;;;;31.83;30.23;;;;;;;19.38;100.00;101237.30;2030842;71;24560;-76
2021/08/09 15:16:22;;;;;;;37.07;34.97;;;;;;;19.26;100.00;101232.91;2030843;71;24081;-76
2021/08/09 15:18:52;;;;;;;44.17;41.57;;;;;;;18.89;100.00;101249.36;2030866;71;24178;-76
2021/08/09 15:21:23;;;;;;;51.43;48.10;;;;;;;18.77;100.00;101268.91;2030854;71;24105;-76
2021/08/09 15:23:56;;;;;;;54.07;50.53;;;;;;;18.02;100.00;101270.02;2030789;71;24163;-76
2021/08/09 15:26:27;;;;;;;53.47;49.83;;;;;;;17.58;100.00;101299.08;2030793;71;24108;-75
2021/08/09 15:28:57;;;;;;;53.50;49.60;;;;;;;17.01;100.00;101284.50;2030845;71;24140;-74
2021/08/09 15:31:28;;;;;;;54.63;50.90;;;;;;;16.89;100.00;101285.07;2030892;70;26277;-74
2021/08/09 15:33:59;;;;;;;50.53;47.03;;;;;;;16.67;100.00;101283.63;2030765;71;24112;-74
2021/08/09 15:36:29;;;;;;;50.77;46.97;;;;;;;16.83;100.00;101280.14;2030775;71;26153;-74
2021/08/09 15:38:59;;;;;;;47.53;44.10;;;;;;;16.68;100.00;101285.30;2030785;71;26260;-74
2021/08/09 15:41:29;;;;;;;45.83;42.63;;;;;;;16.84;100.00;101287.42;2004355;71;26304;-74
2021/08/09 15:43:59;;;;;;;45.13;42.00;;;;;;;16.92;100.00;101311.09;1993890;72;24197;-74
2021/08/09 15:46:29;;;;;;;44.60;41.60;;;;;;;17.09;100.00;101311.81;1993751;71;24194;-74
2021/08/09 15:48:59;;;;;;;45.37;42.27;;;;;;;16.89;100.00;101329.97;1993950;72;24218;-74
2021/08/09 15:51:29;;;;;;;45.57;42.17;;;;;;;17.00;100.00;101317.92;1993847;72;24127;-74
2021/08/09 15:53:59;;;;;;;42.30;39.20;;;;;;;16.96;100.00;101322.51;1993812;72;26188;-74
2021/08/09 15:56:30;;;;;;;42.60;39.40;;;;;;;16.93;100.00;101319.77;1993526;72;24636;-74
2021/08/09 15:59:00;;;;;;;45.63;42.33;;;;;;;17.03;100.00;101331.34;1993164;72;24638;-74
2021/08/09 16:01:30;;;;;;;44.60;41.60;;;;;;;17.06;100.00;101332.94;1993287;72;24114;-74
2021/08/09 16:04:01;;;;;;;44.40;41.20;;;;;;;17.27;100.00;101342.52;1993303;72;24122;-74
2021/08/09 16:06:32;;;;;;;42.93;39.83;;;;;;;17.05;100.00;101355.70;1993041;72;24642;-74
2021/08/09 16:09:02;;;;;;;45.33;42.33;;;;;;;17.19;100.00;101355.09;1993157;72;24111;-74
2021/08/09 16:14:27;;;;;;;43.33;40.23;;;;;;;17.42;100.00;101350.30;1972194;73;30986;-76
2021/08/09 16:19:53;;;;;;;45.27;42.07;;;;;;;17.32;100.00;101354.78;1972488;73;31543;-76
2021/08/09 16:25:18;;;;;;;43.30;40.33;;;;;;;17.34;100.00;101356.11;1972120;73;30997;-76
2021/08/09 16:30:42;;;;;;;44.27;40.97;;;;;;;17.17;100.00;101348.95;1972363;73;33498;-75
2021/08/09 16:36:13;;;;;;;44.97;41.83;;;;;;;17.14;100.00;101356.61;1972202;73;30982;-76
2021/08/09 16:41:37;;;;;;;42.17;38.93;;;;;;;17.53;100.00;101355.92;1950003;72;31063;-76
2021/08/09 16:47:08;;;;;;;43.27;40.07;;;;;;;17.59;100.00;101360.28;1971744;73;31105;-73
2021/08/09 16:52:32;;;;;;;45.57;42.07;;;;;;;17.73;100.00;101365.27;1971610;73;30965;-74
2021/08/09 16:57:57;;;;;;;43.70;40.40;;;;;;;17.84;100.00;101368.05;1971874;73;31025;-74
2021/08/09 17:03:20;;;;;;;42.27;39.17;;;;;;;17.81;100.00;101372.91;1950789;72;31001;-78
2021/08/09 17:08:51;;;;;;;42.83;39.63;;;;;;;17.54;100.00;101368.23;1971824;73;31106;-72
2021/08/09 17:14:16;;;;;;;45.70;42.37;;;;;;;17.41;100.00;101359.32;1972095;72;31459;-80
2021/08/09 17:19:41;;;;;;;45.03;41.50;;;;;;;17.61;100.00;101356.59;1971909;73;30973;-80
2021/08/09 17:25:09;;;;;;;43.80;40.53;;;;;;;17.81;100.00;101358.03;1972015;73;33430;-72
2021/08/09 17:30:33;;;;;;;44.03;40.73;;;;;;;17.87;100.00;101366.59;1972099;73;31567;-80
2021/08/09 17:35:58;;;;;;;44.30;41.10;;;;;;;17.67;100.00;101370.77;1971964;73;31091;-71
2021/08/09 17:41:23;;;;;;;45.77;42.50;;;;;;;17.50;100.00;101372.83;1972009;73;31478;-72
2021/08/09 17:46:47;;;;;;;45.83;42.53;;;;;;;17.51;100.00;101369.45;1971871;73;31096;-71
2021/08/09 17:52:12;;;;;;;45.40;42.30;;;;;;;17.39;100.00;101367.79;1972065;73;31491;-80
2021/08/09 17:57:37;;;;;;;45.43;42.27;;;;;;;17.29;100.00;101364.65;1971889;73;31066;-72
2021/08/09 18:03:04;;;;;;;43.40;40.20;;;;;;;17.43;100.00;101369.64;1972108;73;32981;-79
2021/08/09 18:08:29;;;;;;;44.87;41.67;;;;;;;17.15;100.00;101382.97;1972038;73;31049;-72
2021/08/09 18:13:55;;;;;;;42.70;39.50;;;;;;;17.23;100.00;101380.81;1972099;73;33416;-79
2021/08/09 18:19:20;;;;;;;42.90;39.70;;;;;;;17.12;100.00;101372.92;1971881;73;31029;-79
2021/08/09 18:24:44;;;;;;;42.83;39.73;;;;;;;17.09;100.00;101376.37;1972036;73;31509;-78
2021/08/09 18:30:11;;;;;;;41.80;38.70;;;;;;;17.12;100.00;101377.97;1971838;73;30990;-72
2021/08/09 18:35:35;;;;;;;43.20;40.13;;;;;;;17.07;100.00;101378.08;1972087;73;33433;-72
2021/08/09 18:41:19;;;;;;;42.63;39.63;;;;;;;17.13;100.00;101380.20;2016267;71;31453;-71
2021/08/09 18:46:47;;;;;;;43.87;40.47;;;;;;;17.10;100.00;101387.30;1972121;73;31460;-80
2021/08/09 18:52:18;;;;;;;40.97;38.00;;;;;;;17.07;100.00;101394.92;1972166;73;30956;-72
2021/08/09 18:57:44;;;;;;;43.63;40.50;;;;;;;17.04;100.00;101394.73;1972131;73;33460;-73
2021/08/09 19:03:10;;;;;;;44.73;41.47;;;;;;;16.94;100.00;101394.41;1971911;73;31103;-80
2021/08/09 19:08:35;;;;;;;41.80;38.47;;;;;;;16.94;100.00;101399.19;1972100;73;31557;-80
2021/08/09 19:14:00;;;;;;;43.03;39.90;;;;;;;16.97;100.00;101402.19;1971889;73;31067;-73
2021/08/09 19:19:25;;;;;;;43.17;40.20;;;;;;;16.95;100.00;101407.27;1971865;73;30986;-72
2021/08/09 19:25:12;;;;;;;43.83;40.83;;;;;;;16.91;100.00;101406.81;2016099;71;30868;-80
2021/08/09 19:30:37;;;;;;;41.93;39.03;;;;;;;16.97;100.00;101406.40;1972012;73;33001;-72
2021/08/09 19:36:02;;;;;;;41.20;38.30;;;;;;;16.81;100.00;101402.27;1971966;72;32920;-72
2021/08/09 19:41:46;;;;;;;42.90;39.93;;;;;;;16.84;100.00;101410.89;2016676;71;30939;-72
2021/08/09 19:47:11;;;;;;;42.83;39.90;;;;;;;16.92;100.00;101405.09;1971966;73;30968;-72
2021/08/09 19:52:36;;;;;;;42.93;40.03;;;;;;;16.78;100.00;101404.28;1972085;73;33384;-73
2021/08/09 19:58:02;;;;;;;42.27;39.07;;;;;;;16.92;100.00;101400.05;1971951;73;31162;-71
2021/08/09 20:03:27;;;;;;;40.80;37.77;;;;;;;16.87;100.00;101418.41;1971949;73;31359;-72
2021/08/09 20:08:51;;;;;;;42.87;39.47;;;;;;;16.91;100.00;101437.11;1972038;72;31171;-72
2021/08/09 20:14:19;;;;;;;44.83;41.53;;;;;;;16.93;100.00;101439.05;1972084;73;30969;-81
2021/08/09 20:19:45;;;;;;;43.27;40.00;;;;;;;16.90;100.00;101442.45;1971853;73;33008;-79
2021/08/09 20:25:14;;;;;;;40.40;37.30;;;;;;;16.89;100.00;101454.02;1972167;73;31055;-71
2021/08/09 20:30:38;;;;;;;42.33;39.13;;;;;;;16.92;100.00;101459.83;1971859;73;30960;-72
2021/08/09 20:36:03;;;;;;;41.10;38.00;;;;;;;16.84;100.00;101457.75;1972114;73;31562;-72
2021/08/09 20:41:27;;;;;;;42.50;39.17;;;;;;;16.82;100.00;101457.22;1971837;73;32920;-71
2021/08/09 20:47:11;;;;;;;42.13;39.07;;;;;;;16.84;100.00;101452.98;2016398;71;31360;-71
2021/08/09 20:52:36;;;;;;;41.77;38.33;;;;;;;16.79;100.00;101458.69;1971789;73;32994;-72
2021/08/09 20:58:08;;;;;;;42.60;39.30;;;;;;;16.83;100.00;101465.34;1972045;73;30968;-72
2021/08/09 21:03:33;;;;;;;42.77;39.37;;;;;;;16.78;100.00;101472.45;1972079;73;31643;-79
2021/08/09 21:08:59;;;;;;;45.07;41.17;;;;;;;16.86;100.00;101472.28;1971884;73;30963;-80
2021/08/09 21:14:25;;;;;;;42.47;38.97;;;;;;;16.82;100.00;101478.27;1971833;73;33043;-73
2021/08/09 21:19:49;;;;;;;43.30;40.00;;;;;;;16.87;100.00;101469.75;1971947;73;30963;-79
2021/08/09 21:25:15;;;;;;;43.60;40.07;;;;;;;16.90;100.00;101478.94;1971899;73;31407;-72
2021/08/09 21:30:39;;;;;;;45.23;41.63;;;;;;;16.86;100.00;101483.52;1971831;72;31093;-72
2021/08/09 21:36:05;;;;;;;42.23;38.87;;;;;;;16.83;100.00;101484.14;1972001;73;30991;-72
2021/08/09 21:41:29;;;;;;;44.73;41.07;;;;;;;16.80;100.00;101472.98;1951533;73;31017;-82
2021/08/09 21:46:54;;;;;;;43.40;39.73;;;;;;;16.75;100.00;101482.07;1972198;73;31038;-80
2021/08/09 21:52:18;;;;;;;43.17;39.70;;;;;;;16.73;100.00;101480.97;1971951;73;31048;-72